createdAt,value
2018-08-07T00:01:43.500Z,22.29
2018-08-07T00:02:43.565Z,22.29
2018-08-07T00:04:36.570Z,22.15
2018-08-07T00:05:36.629Z,22.08
2018-08-07T00:07:29.632Z,22.10
2018-08-07T00:08:29.699Z,22.17
2018-08-07T00:10:22.698Z,22.11
2018-08-07T00:11:22.759Z,22.11
2018-08-07T00:13:15.775Z,22.17
2018-08-07T00:14:15.822Z,22.13
2018-08-07T00:16:08.826Z,22.11
2018-08-07T00:17:08.885Z,22.08
2018-08-07T00:19:01.891Z,22.02
2018-08-07T00:20:01.951Z,21.99
2018-08-07T00:21:54.947Z,21.93
2018-08-07T00:22:55.015Z,22.00
2018-08-07T00:24:48.017Z,21.96
2018-08-07T00:25:48.079Z,21.96
2018-08-07T00:27:41.076Z,22.13
2018-08-07T00:28:41.139Z,22.17
2018-08-07T00:30:34.145Z,22.15
2018-08-07T00:31:34.205Z,22.18
2018-08-07T00:33:27.212Z,22.15
2018-08-07T00:34:27.267Z,22.22
2018-08-07T00:36:20.262Z,22.23
2018-08-07T00:37:20.328Z,22.15
2018-08-07T00:39:13.330Z,22.17
2018-08-07T00:40:13.394Z,22.15
2018-08-07T00:42:06.392Z,22.06
2018-08-07T00:43:06.459Z,21.96
2018-08-07T00:44:59.463Z,22.02
2018-08-07T00:45:59.532Z,21.95
2018-08-07T00:47:52.520Z,22.08
2018-08-07T00:48:52.586Z,21.89
2018-08-07T00:50:46.101Z,21.83
2018-08-07T00:51:46.156Z,21.77
2018-08-07T00:53:39.158Z,21.83
2018-08-07T00:54:39.220Z,21.80
2018-08-07T00:56:32.232Z,21.73
2018-08-07T00:57:32.291Z,21.66
2018-08-07T00:59:25.294Z,21.58
2018-08-07T01:00:25.354Z,21.58
2018-08-07T01:02:18.348Z,21.72
2018-08-07T01:03:18.418Z,21.64
2018-08-07T01:05:11.419Z,21.67
2018-08-07T01:06:11.479Z,21.66
2018-08-07T01:08:04.475Z,21.57
2018-08-07T01:09:04.541Z,21.51
2018-08-07T01:10:57.544Z,21.64
2018-08-07T01:11:57.602Z,21.60
2018-08-07T01:13:50.609Z,21.75
2018-08-07T01:14:50.666Z,21.52
2018-08-07T01:16:43.671Z,21.58
2018-08-07T01:17:43.729Z,21.51
2018-08-07T01:19:36.737Z,21.42
2018-08-07T01:20:36.791Z,21.40
2018-08-07T01:22:29.793Z,21.54
2018-08-07T01:23:29.858Z,21.57
2018-08-07T01:25:22.864Z,21.45
2018-08-07T01:26:22.921Z,21.43
2018-08-07T01:28:15.917Z,21.32
2018-08-07T01:29:15.985Z,21.36
2018-08-07T01:31:08.985Z,21.39
2018-08-07T01:32:09.047Z,21.43
2018-08-07T01:34:02.043Z,21.30
2018-08-07T01:35:02.108Z,21.30
2018-08-07T01:36:55.115Z,21.15
2018-08-07T01:37:55.174Z,21.17
2018-08-07T01:39:48.179Z,21.15
2018-08-07T01:40:48.236Z,21.15
2018-08-07T01:42:41.233Z,21.21
2018-08-07T01:43:41.297Z,21.37
2018-08-07T01:45:34.306Z,21.29
2018-08-07T01:46:34.367Z,21.35
2018-08-07T01:48:27.366Z,21.35
2018-08-07T01:49:27.427Z,21.20
2018-08-07T01:51:20.433Z,21.02
2018-08-07T01:52:20.509Z,20.96
2018-08-07T01:54:13.484Z,20.99
2018-08-07T01:55:13.550Z,20.99
2018-08-07T01:57:06.551Z,20.99
2018-08-07T01:58:06.610Z,21.00
2018-08-07T01:59:59.618Z,21.15
2018-08-07T02:00:59.672Z,21.02
2018-08-07T02:02:52.668Z,21.00
2018-08-07T02:03:52.733Z,20.99
2018-08-07T02:05:45.736Z,20.99
2018-08-07T02:06:45.794Z,21.06
2018-08-07T02:08:38.790Z,20.99
2018-08-07T02:09:38.856Z,20.99
2018-08-07T02:11:31.858Z,20.87
2018-08-07T02:12:31.917Z,20.78
2018-08-07T02:14:24.912Z,20.88
2018-08-07T02:15:24.977Z,20.93
2018-08-07T02:17:17.979Z,20.88
2018-08-07T02:18:18.042Z,20.88
2018-08-07T02:20:11.041Z,20.87
2018-08-07T02:21:11.100Z,20.75
2018-08-07T02:23:04.102Z,20.82
2018-08-07T02:24:04.161Z,20.75
2018-08-07T02:25:57.165Z,20.75
2018-08-07T02:26:57.225Z,20.77
2018-08-07T02:28:50.237Z,20.74
2018-08-07T02:29:50.284Z,20.70
2018-08-07T02:31:43.291Z,20.70
2018-08-07T02:32:43.349Z,20.56
2018-08-07T02:34:36.375Z,20.66
2018-08-07T02:35:36.411Z,20.56
2018-08-07T02:37:29.414Z,20.56
2018-08-07T02:38:29.472Z,20.67
2018-08-07T02:40:22.473Z,20.58
2018-08-07T02:41:22.533Z,20.70
2018-08-07T02:43:15.529Z,20.62
2018-08-07T02:44:15.595Z,20.51
2018-08-07T02:46:08.601Z,20.50
2018-08-07T02:47:08.653Z,20.52
2018-08-07T02:49:01.654Z,20.60
2018-08-07T02:50:01.721Z,20.66
2018-08-07T02:51:54.725Z,20.69
2018-08-07T02:52:54.781Z,20.69
2018-08-07T02:54:47.776Z,20.59
2018-08-07T02:55:47.846Z,20.58
2018-08-07T02:57:40.838Z,20.50
2018-08-07T02:58:40.901Z,20.48
2018-08-07T03:00:33.903Z,20.56
2018-08-07T03:01:33.962Z,20.55
2018-08-07T03:03:26.954Z,20.60
2018-08-07T03:04:27.021Z,20.59
2018-08-07T03:06:20.024Z,20.48
2018-08-07T03:07:20.083Z,20.47
2018-08-07T03:09:13.078Z,20.37
2018-08-07T03:10:13.150Z,20.40
2018-08-07T03:12:06.143Z,20.32
2018-08-07T03:13:06.202Z,20.22
2018-08-07T03:14:59.200Z,20.25
2018-08-07T03:15:59.263Z,20.26
2018-08-07T03:17:52.267Z,20.28
2018-08-07T03:18:52.324Z,20.25
2018-08-07T03:20:45.325Z,20.25
2018-08-07T03:21:45.385Z,20.14
2018-08-07T03:23:38.380Z,20.21
2018-08-07T03:24:38.443Z,20.22
2018-08-07T03:26:31.451Z,20.26
2018-08-07T03:27:31.505Z,20.19
2018-08-07T03:29:24.500Z,20.21
2018-08-07T03:30:24.566Z,20.24
2018-08-07T03:32:17.567Z,20.10
2018-08-07T03:33:17.625Z,20.03
2018-08-07T03:35:10.619Z,20.21
2018-08-07T03:36:10.852Z,20.26
2018-08-07T03:38:03.688Z,20.26
2018-08-07T03:39:03.744Z,20.24
2018-08-07T03:40:56.746Z,20.32
2018-08-07T03:41:56.802Z,20.29
2018-08-07T03:43:49.797Z,20.26
2018-08-07T03:44:49.861Z,20.25
2018-08-07T03:46:42.864Z,20.24
2018-08-07T03:47:42.921Z,20.18
2018-08-07T03:49:35.917Z,20.14
2018-08-07T03:50:35.981Z,20.25
2018-08-07T03:52:28.983Z,20.21
2018-08-07T03:53:29.041Z,20.09
2018-08-07T03:55:22.041Z,20.16
2018-08-07T03:56:22.104Z,20.06
2018-08-07T03:58:15.107Z,20.07
2018-08-07T03:59:15.163Z,20.11
2018-08-07T04:01:08.166Z,20.14
2018-08-07T04:02:08.229Z,20.09
2018-08-07T04:04:01.219Z,20.04
2018-08-07T04:05:01.403Z,20.00
2018-08-07T04:06:54.286Z,20.02
2018-08-07T04:07:54.341Z,20.02
2018-08-07T04:09:47.340Z,20.03
2018-08-07T04:10:47.403Z,20.04
2018-08-07T04:12:40.404Z,19.91
2018-08-07T04:13:40.465Z,19.92
2018-08-07T04:15:33.462Z,19.76
2018-08-07T04:16:33.521Z,19.86
2018-08-07T04:18:26.523Z,19.86
2018-08-07T04:19:26.581Z,19.84
2018-08-07T04:21:19.581Z,19.85
2018-08-07T04:22:19.642Z,19.86
2018-08-07T04:24:12.639Z,19.86
2018-08-07T04:25:12.699Z,19.82
2018-08-07T04:27:05.699Z,19.84
2018-08-07T04:28:05.759Z,19.88
2018-08-07T04:29:58.750Z,19.95
2018-08-07T04:30:58.817Z,19.89
2018-08-07T04:32:51.813Z,20.03
2018-08-07T04:33:51.878Z,20.03
2018-08-07T04:35:44.874Z,20.00
2018-08-07T04:36:44.937Z,20.07
2018-08-07T04:38:38.451Z,20.07
2018-08-07T04:39:38.504Z,20.02
2018-08-07T04:41:31.510Z,20.06
2018-08-07T04:42:31.569Z,20.02
2018-08-07T04:44:24.565Z,20.04
2018-08-07T04:45:24.628Z,20.03
2018-08-07T04:47:17.625Z,19.99
2018-08-07T04:48:17.688Z,19.91
2018-08-07T04:50:10.682Z,20.00
2018-08-07T04:51:10.744Z,20.04
2018-08-07T04:53:03.745Z,20.02
2018-08-07T04:54:03.805Z,20.06
2018-08-07T04:55:56.807Z,20.00
2018-08-07T04:56:56.867Z,20.09
2018-08-07T04:58:49.868Z,20.07
2018-08-07T04:59:49.925Z,20.18
2018-08-07T05:01:42.936Z,20.26
2018-08-07T05:02:42.995Z,20.22
2018-08-07T05:04:35.994Z,20.28
2018-08-07T05:05:36.059Z,20.31
2018-08-07T05:07:29.055Z,20.40
2018-08-07T05:08:29.113Z,20.34
2018-08-07T05:10:22.133Z,20.40
2018-08-07T05:11:22.172Z,20.47
2018-08-07T05:13:15.173Z,20.44
2018-08-07T05:14:15.242Z,20.48
2018-08-07T05:16:08.226Z,20.43
2018-08-07T05:17:08.292Z,20.47
2018-08-07T05:19:01.321Z,20.56
2018-08-07T05:20:01.351Z,20.55
2018-08-07T05:21:54.352Z,20.52
2018-08-07T05:22:54.411Z,20.66
2018-08-07T05:24:47.405Z,20.69
2018-08-07T05:25:47.470Z,20.72
2018-08-07T05:27:40.480Z,20.69
2018-08-07T05:28:40.587Z,20.77
2018-08-07T05:30:33.523Z,20.90
2018-08-07T05:31:33.591Z,20.87
2018-08-07T05:33:26.593Z,21.00
2018-08-07T05:34:26.658Z,21.02
2018-08-07T05:36:19.643Z,21.05
2018-08-07T05:37:19.707Z,21.15
2018-08-07T05:39:13.219Z,21.22
2018-08-07T05:40:13.309Z,21.33
2018-08-07T05:42:06.276Z,21.42
2018-08-07T05:43:06.336Z,21.40
2018-08-07T05:44:59.330Z,21.50
2018-08-07T05:45:59.395Z,21.45
2018-08-07T05:47:52.403Z,21.62
2018-08-07T05:48:52.461Z,21.70
2018-08-07T05:50:45.666Z,21.79
2018-08-07T05:51:45.524Z,21.79
2018-08-07T05:53:38.526Z,22.04
2018-08-07T05:54:38.586Z,22.06
2018-08-07T05:56:31.608Z,22.13
2018-08-07T05:57:31.647Z,22.30
2018-08-07T05:59:24.646Z,22.39
2018-08-07T06:00:24.705Z,22.44
2018-08-07T06:02:17.709Z,22.68
2018-08-07T06:03:17.766Z,22.66
2018-08-07T06:05:10.763Z,22.83
2018-08-07T06:06:10.827Z,22.81
2018-08-07T06:08:03.838Z,23.05
2018-08-07T06:09:03.898Z,23.24
2018-08-07T06:10:56.911Z,23.37
2018-08-07T06:11:56.968Z,23.51
2018-08-07T06:13:49.969Z,23.74
2018-08-07T06:14:50.030Z,23.81
2018-08-07T06:16:43.025Z,24.33
2018-08-07T06:17:43.088Z,24.60
2018-08-07T06:19:36.092Z,25.81
2018-08-07T06:20:36.151Z,26.90
2018-08-07T06:22:29.154Z,29.07
2018-08-07T06:23:29.213Z,29.47
2018-08-07T06:25:22.213Z,30.62
2018-08-07T06:26:22.306Z,30.43
2018-08-07T06:28:15.288Z,31.14
2018-08-07T06:29:15.347Z,31.49
2018-08-07T06:31:08.352Z,31.37
2018-08-07T06:32:08.416Z,31.78
2018-08-07T06:34:01.425Z,31.78
2018-08-07T06:35:01.484Z,32.00
2018-08-07T06:36:54.494Z,32.56
2018-08-07T06:37:54.631Z,32.68
2018-08-07T06:39:47.622Z,33.07
2018-08-07T06:40:47.648Z,33.11
2018-08-07T06:42:40.660Z,33.43
2018-08-07T06:43:40.726Z,33.40
2018-08-07T06:45:33.740Z,34.13
2018-08-07T06:46:33.809Z,34.27
2018-08-07T06:48:26.823Z,34.50
2018-08-07T06:49:26.889Z,34.51
2018-08-07T06:51:19.918Z,34.36
2018-08-07T06:52:19.996Z,34.57
2018-08-07T06:54:13.051Z,34.88
2018-08-07T06:55:13.061Z,35.24
2018-08-07T06:57:06.168Z,36.12
2018-08-07T06:58:06.161Z,36.42
2018-08-07T06:59:59.189Z,37.08
2018-08-07T07:00:59.237Z,37.21
2018-08-07T07:02:52.256Z,37.70
2018-08-07T07:03:52.327Z,37.86
2018-08-07T07:05:45.338Z,37.49
2018-08-07T07:06:45.412Z,37.35
2018-08-07T07:08:38.436Z,37.28
2018-08-07T07:09:38.522Z,37.23
2018-08-07T07:11:31.521Z,37.80
2018-08-07T07:12:31.599Z,37.17
2018-08-07T07:14:24.625Z,37.45
2018-08-07T07:15:24.688Z,37.28
2018-08-07T07:17:17.708Z,37.06
2018-08-07T07:18:17.785Z,36.83
2018-08-07T07:20:10.807Z,36.54
2018-08-07T07:21:10.875Z,36.84
2018-08-07T07:23:03.932Z,37.93
2018-08-07T07:24:03.970Z,38.42
2018-08-07T07:25:56.988Z,38.38
2018-08-07T07:26:57.065Z,38.14
2018-08-07T07:28:50.091Z,38.30
2018-08-07T07:29:50.161Z,38.38
2018-08-07T07:31:43.190Z,38.01
2018-08-07T07:32:43.255Z,38.27
2018-08-07T07:34:36.381Z,38.96
2018-08-07T07:35:36.364Z,38.89
2018-08-07T07:37:29.401Z,39.41
2018-08-07T07:38:29.461Z,39.90
2018-08-07T07:40:22.486Z,40.30
2018-08-07T07:41:22.561Z,40.30
2018-08-07T07:43:15.588Z,40.40
2018-08-07T07:44:15.655Z,40.38
2018-08-07T07:46:08.677Z,40.33
2018-08-07T07:47:08.820Z,40.30
2018-08-07T07:49:01.803Z,40.77
2018-08-07T07:50:01.870Z,40.95
2018-08-07T07:51:54.890Z,41.41
2018-08-07T07:52:54.970Z,41.15
2018-08-07T07:54:48.000Z,41.03
2018-08-07T07:55:48.071Z,41.50
2018-08-07T07:57:41.092Z,41.74
2018-08-07T07:58:41.171Z,42.16
2018-08-07T08:00:34.196Z,42.50
2018-08-07T08:01:34.270Z,42.81
2018-08-07T08:03:27.299Z,42.60
2018-08-07T08:04:27.373Z,42.79
2018-08-07T08:06:20.397Z,42.32
2018-08-07T08:07:20.475Z,42.74
2018-08-07T08:09:13.508Z,42.65
2018-08-07T08:10:13.576Z,42.04
2018-08-07T08:12:06.598Z,42.07
2018-08-07T08:13:06.680Z,42.48
2018-08-07T08:14:59.708Z,42.73
2018-08-07T08:15:59.782Z,43.04
2018-08-07T08:17:52.808Z,43.64
2018-08-07T08:18:52.885Z,43.81
2018-08-07T08:20:45.921Z,43.76
2018-08-07T08:21:45.992Z,44.08
2018-08-07T08:23:39.023Z,43.23
2018-08-07T08:24:39.099Z,43.38
2018-08-07T08:26:32.125Z,43.62
2018-08-07T08:27:32.205Z,43.99
2018-08-07T08:29:25.404Z,43.31
2018-08-07T08:30:25.311Z,43.79
2018-08-07T08:32:18.342Z,44.39
2018-08-07T08:33:18.420Z,44.91
2018-08-07T08:35:11.499Z,44.30
2018-08-07T08:36:11.526Z,44.11
2018-08-07T08:38:04.556Z,43.33
2018-08-07T08:39:04.632Z,42.65
2018-08-07T08:40:57.730Z,42.32
2018-08-07T08:41:57.750Z,42.79
2018-08-07T08:43:50.788Z,42.79
2018-08-07T08:44:50.857Z,43.04
2018-08-07T08:46:43.887Z,42.45
2018-08-07T08:47:43.970Z,42.99
2018-08-07T08:49:37.016Z,43.43
2018-08-07T08:50:37.086Z,43.95
2018-08-07T08:52:30.117Z,44.88
2018-08-07T08:53:30.203Z,44.30
2018-08-07T08:55:23.232Z,44.56
2018-08-07T08:56:23.308Z,43.48
2018-08-07T08:58:16.351Z,43.74
2018-08-07T08:59:16.424Z,44.08
2018-08-07T09:01:09.467Z,44.14
2018-08-07T09:02:09.547Z,43.96
2018-08-07T09:04:02.582Z,43.50
2018-08-07T09:05:02.678Z,44.15
2018-08-07T09:06:55.689Z,44.02
2018-08-07T09:07:55.771Z,44.56
2018-08-07T09:09:48.817Z,44.06
2018-08-07T09:10:48.977Z,43.86
2018-08-07T09:12:41.929Z,44.34
2018-08-07T09:13:42.014Z,44.40
2018-08-07T09:15:35.050Z,44.98
2018-08-07T09:16:35.129Z,44.72
2018-08-07T09:18:28.154Z,45.29
2018-08-07T09:19:28.248Z,44.56
2018-08-07T09:21:21.277Z,43.64
2018-08-07T09:22:21.356Z,44.22
2018-08-07T09:24:14.396Z,44.13
2018-08-07T09:25:14.510Z,44.29
2018-08-07T09:27:07.504Z,43.54
2018-08-07T09:28:07.587Z,41.37
2018-08-07T09:30:00.631Z,39.41
2018-08-07T09:31:00.706Z,38.86
2018-08-07T09:32:53.789Z,38.40
2018-08-07T09:33:53.830Z,37.87
2018-08-07T09:35:46.852Z,37.48
2018-08-07T09:36:46.930Z,37.15
2018-08-07T09:38:39.958Z,36.59
2018-08-07T09:39:40.111Z,36.58
2018-08-07T09:41:33.061Z,36.42
2018-08-07T09:42:33.134Z,36.04
2018-08-07T09:44:26.162Z,35.53
2018-08-07T09:45:26.286Z,35.55
2018-08-07T09:47:19.256Z,35.44
2018-08-07T09:48:19.328Z,35.63
2018-08-07T09:50:12.349Z,35.74
2018-08-07T09:51:12.421Z,35.90
2018-08-07T09:53:05.444Z,36.28
2018-08-07T09:54:05.517Z,36.36
2018-08-07T09:55:58.544Z,35.88
2018-08-07T09:56:58.608Z,35.58
2018-08-07T09:58:51.623Z,35.63
2018-08-07T09:59:51.697Z,35.76
2018-08-07T10:01:44.724Z,35.86
2018-08-07T10:02:44.789Z,35.95
2018-08-07T10:04:37.815Z,36.04
2018-08-07T10:05:37.935Z,35.97
2018-08-07T10:07:30.910Z,35.61
2018-08-07T10:08:30.966Z,35.61
2018-08-07T10:10:23.989Z,35.73
2018-08-07T10:11:24.055Z,35.86
2018-08-07T10:13:17.070Z,35.92
2018-08-07T10:14:17.143Z,35.66
2018-08-07T10:16:10.171Z,35.60
2018-08-07T10:17:10.231Z,35.78
2018-08-07T10:19:03.255Z,35.90
2018-08-07T10:20:03.317Z,35.74
2018-08-07T10:21:56.338Z,35.73
2018-08-07T10:22:56.403Z,35.76
2018-08-07T10:24:49.446Z,35.82
2018-08-07T10:25:49.502Z,35.85
2018-08-07T10:27:42.519Z,35.58
2018-08-07T10:28:42.587Z,35.74
2018-08-07T10:30:35.700Z,35.79
2018-08-07T10:31:35.674Z,35.71
2018-08-07T10:33:28.694Z,35.92
2018-08-07T10:34:28.767Z,36.00
2018-08-07T10:36:21.788Z,35.61
2018-08-07T10:37:21.857Z,35.52
2018-08-07T10:39:15.382Z,35.89
2018-08-07T10:40:15.457Z,36.08
2018-08-07T10:42:08.470Z,36.27
2018-08-07T10:43:08.619Z,36.24
2018-08-07T10:45:01.554Z,36.36
2018-08-07T10:46:01.622Z,36.33
2018-08-07T10:47:54.653Z,36.30
2018-08-07T10:48:54.707Z,36.35
2018-08-07T10:50:47.770Z,36.31
2018-08-07T10:51:47.802Z,36.39
2018-08-07T10:53:40.811Z,36.33
2018-08-07T10:54:40.891Z,36.24
2018-08-07T10:56:34.103Z,36.35
2018-08-07T10:57:33.968Z,36.51
2018-08-07T10:59:27.001Z,36.51
2018-08-07T11:00:27.064Z,36.47
2018-08-07T11:02:20.279Z,36.27
2018-08-07T11:03:20.139Z,36.25
2018-08-07T11:05:13.165Z,36.25
2018-08-07T11:06:13.278Z,36.40
2018-08-07T11:08:06.236Z,36.42
2018-08-07T11:09:06.373Z,36.42
2018-08-07T11:10:59.407Z,36.42
2018-08-07T11:11:59.391Z,36.43
2018-08-07T11:13:52.504Z,36.33
2018-08-07T11:14:52.535Z,36.43
2018-08-07T11:16:45.592Z,36.25
2018-08-07T11:17:45.565Z,36.12
2018-08-07T11:19:38.590Z,36.17
2018-08-07T11:20:38.690Z,36.12
2018-08-07T11:22:31.675Z,36.02
2018-08-07T11:23:31.816Z,36.09
2018-08-07T11:25:24.778Z,36.18
2018-08-07T11:26:24.883Z,36.24
2018-08-07T11:28:17.866Z,36.46
2018-08-07T11:29:17.914Z,36.54
2018-08-07T11:31:11.050Z,36.61
2018-08-07T11:32:10.991Z,36.61
2018-08-07T11:34:04.033Z,36.54
2018-08-07T11:35:04.167Z,36.45
2018-08-07T11:36:57.140Z,36.31
2018-08-07T11:37:57.179Z,36.46
2018-08-07T11:39:50.939Z,36.61
2018-08-07T11:40:50.752Z,36.59
2018-08-07T11:42:43.789Z,36.49
2018-08-07T11:43:43.940Z,36.42
2018-08-07T11:45:36.911Z,36.24
2018-08-07T11:46:36.935Z,36.28
2018-08-07T11:48:29.975Z,36.35
2018-08-07T11:49:30.017Z,36.35
2018-08-07T11:51:23.253Z,36.58
2018-08-07T11:52:23.117Z,36.65
2018-08-07T11:54:16.377Z,36.98
2018-08-07T11:55:16.184Z,36.96
2018-08-07T11:57:09.337Z,36.83
2018-08-07T11:58:09.286Z,36.83
2018-08-07T12:00:02.368Z,36.80
2018-08-07T12:01:02.435Z,36.88
2018-08-07T12:02:55.408Z,36.98
2018-08-07T12:03:55.629Z,36.89
2018-08-07T12:05:48.561Z,36.70
2018-08-07T12:06:48.808Z,36.62
2018-08-07T12:08:41.827Z,36.68
2018-08-07T12:09:41.623Z,36.61
2018-08-07T12:11:34.782Z,36.64
2018-08-07T12:12:34.709Z,36.68
2018-08-07T12:14:27.720Z,36.67
2018-08-07T12:15:27.904Z,36.96
2018-08-07T12:17:20.838Z,37.06
2018-08-07T12:18:21.036Z,37.10
2018-08-07T12:20:14.086Z,37.11
2018-08-07T12:21:13.965Z,37.13
2018-08-07T12:23:07.403Z,37.10
2018-08-07T12:24:07.052Z,37.14
2018-08-07T12:26:00.171Z,37.11
2018-08-07T12:27:00.136Z,37.20
2018-08-07T12:28:53.200Z,36.99
2018-08-07T12:29:53.300Z,37.06
2018-08-07T12:31:46.259Z,36.84
2018-08-07T12:32:46.618Z,36.67
2018-08-07T12:34:39.443Z,36.68
2018-08-07T12:35:39.399Z,36.52
2018-08-07T12:37:32.416Z,36.54
2018-08-07T12:38:32.482Z,36.54
2018-08-07T12:40:25.497Z,36.58
2018-08-07T12:41:25.572Z,36.55
2018-08-07T12:43:18.588Z,36.62
2018-08-07T12:44:18.686Z,36.58
2018-08-07T12:46:11.671Z,36.59
2018-08-07T12:47:11.739Z,36.68
2018-08-07T12:49:04.751Z,36.68
2018-08-07T12:50:04.829Z,36.77
2018-08-07T12:51:57.850Z,36.84
2018-08-07T12:52:57.932Z,36.95
2018-08-07T12:54:50.934Z,36.77
2018-08-07T12:55:51.009Z,36.77
2018-08-07T12:57:44.028Z,36.67
2018-08-07T12:58:44.093Z,36.58
2018-08-07T13:00:37.110Z,36.70
2018-08-07T13:01:37.183Z,36.77
2018-08-07T13:03:30.203Z,36.84
2018-08-07T13:04:30.271Z,36.96
2018-08-07T13:06:23.293Z,36.81
2018-08-07T13:07:23.361Z,37.02
2018-08-07T13:09:16.374Z,37.29
2018-08-07T13:10:16.447Z,37.40
2018-08-07T13:12:09.467Z,37.37
2018-08-07T13:13:09.531Z,37.35
2018-08-07T13:15:02.549Z,37.35
2018-08-07T13:16:02.624Z,37.28
2018-08-07T13:17:55.648Z,37.33
2018-08-07T13:18:55.717Z,37.28
2018-08-07T13:21:00.349Z,37.21
2018-08-07T13:22:00.417Z,37.15
2018-08-07T13:23:53.432Z,36.93
2018-08-07T13:24:53.498Z,36.91
2018-08-07T13:26:46.518Z,36.74
2018-08-07T13:27:46.585Z,36.77
2018-08-07T13:29:39.598Z,36.81
2018-08-07T13:30:39.673Z,36.88
2018-08-07T13:32:32.687Z,36.84
2018-08-07T13:33:32.760Z,36.83
2018-08-07T13:35:25.766Z,36.83
2018-08-07T13:36:25.839Z,36.79
2018-08-07T13:38:18.856Z,36.79
2018-08-07T13:39:18.920Z,36.77
2018-08-07T13:41:11.945Z,36.98
2018-08-07T13:42:12.007Z,37.03
2018-08-07T13:44:05.045Z,37.21
2018-08-07T13:45:05.097Z,37.15
2018-08-07T13:46:58.111Z,37.25
2018-08-07T13:47:58.177Z,37.15
2018-08-07T13:49:51.189Z,37.17
2018-08-07T13:50:51.262Z,37.23
2018-08-07T13:52:44.290Z,37.17
2018-08-07T13:53:44.362Z,37.15
2018-08-07T13:55:37.365Z,37.13
2018-08-07T13:56:37.439Z,37.18
2018-08-07T13:58:30.455Z,37.28
2018-08-07T13:59:30.521Z,37.25
2018-08-07T14:01:23.531Z,37.15
2018-08-07T14:02:23.605Z,37.28
2018-08-07T14:04:16.642Z,37.18
2018-08-07T14:05:16.692Z,37.20
2018-08-07T14:07:09.708Z,36.99
2018-08-07T14:08:09.775Z,36.88
2018-08-07T14:10:03.004Z,36.89
2018-08-07T14:11:02.862Z,36.96
2018-08-07T14:12:55.913Z,36.86
2018-08-07T14:13:55.946Z,36.86
2018-08-07T14:15:48.966Z,36.81
2018-08-07T14:16:49.032Z,36.88
2018-08-07T14:18:42.054Z,36.92
2018-08-07T14:19:42.120Z,36.92
2018-08-07T14:21:35.638Z,36.89
2018-08-07T14:22:35.710Z,36.91
2018-08-07T14:24:28.843Z,36.98
2018-08-07T14:25:28.801Z,36.96
2018-08-07T14:27:21.812Z,36.98
2018-08-07T14:28:21.878Z,36.95
2018-08-07T14:30:14.890Z,36.95
2018-08-07T14:31:14.961Z,37.01
2018-08-07T14:33:08.030Z,37.02
2018-08-07T14:34:08.060Z,37.07
2018-08-07T14:36:01.607Z,37.13
2018-08-07T14:37:01.164Z,37.03
2018-08-07T14:38:54.176Z,37.02
2018-08-07T14:39:54.233Z,36.99
2018-08-07T14:41:47.246Z,37.02
2018-08-07T14:42:47.328Z,37.01
2018-08-07T14:44:40.386Z,37.01
2018-08-07T14:45:40.419Z,36.98
2018-08-07T14:47:33.431Z,36.93
2018-08-07T14:48:33.542Z,36.93
2018-08-07T14:50:26.587Z,36.81
2018-08-07T14:51:26.597Z,36.81
2018-08-07T14:53:19.612Z,36.76
2018-08-07T14:54:19.684Z,36.79
2018-08-07T14:56:12.690Z,36.73
2018-08-07T14:57:12.763Z,36.80
2018-08-07T14:59:05.797Z,36.79
2018-08-07T15:00:05.874Z,36.88
2018-08-07T15:01:58.937Z,36.91
2018-08-07T15:02:58.954Z,36.91
2018-08-07T15:04:51.964Z,36.91
2018-08-07T15:05:52.030Z,36.81
2018-08-07T15:07:45.055Z,36.88
2018-08-07T15:08:45.120Z,36.83
2018-08-07T15:10:38.129Z,36.95
2018-08-07T15:11:38.202Z,36.95
2018-08-07T15:13:31.219Z,36.81
2018-08-07T15:14:31.286Z,36.96
2018-08-07T15:16:24.342Z,36.79
2018-08-07T15:17:24.381Z,36.81
2018-08-07T15:19:17.390Z,36.80
2018-08-07T15:20:17.484Z,36.74
2018-08-07T15:22:10.494Z,36.70
2018-08-07T15:23:10.583Z,36.58
2018-08-07T15:25:03.578Z,36.59
2018-08-07T15:26:03.646Z,36.57
2018-08-07T15:27:56.672Z,36.59
2018-08-07T15:28:56.729Z,36.64
2018-08-07T15:30:49.742Z,36.70
2018-08-07T15:31:49.816Z,36.67
2018-08-07T15:33:42.830Z,36.65
2018-08-07T15:34:42.892Z,36.64
2018-08-07T15:36:35.912Z,36.73
2018-08-07T15:37:35.980Z,36.67
2018-08-07T15:39:28.997Z,36.73
2018-08-07T15:40:29.056Z,36.68
2018-08-07T15:42:22.078Z,36.73
2018-08-07T15:43:22.154Z,36.76
2018-08-07T15:45:15.169Z,36.68
2018-08-07T15:46:15.234Z,36.70
2018-08-07T15:48:08.251Z,36.73
2018-08-07T15:49:08.328Z,36.72
2018-08-07T15:51:01.336Z,36.72
2018-08-07T15:52:01.412Z,36.68
2018-08-07T15:53:54.444Z,36.68
2018-08-07T15:54:54.530Z,36.67
2018-08-07T15:56:47.578Z,36.67
2018-08-07T15:57:47.605Z,36.65
2018-08-07T15:59:40.624Z,36.61
2018-08-07T16:00:40.865Z,36.67
2018-08-07T16:02:33.786Z,36.61
2018-08-07T16:03:34.803Z,36.58
2018-08-07T16:05:26.850Z,36.58
2018-08-07T16:06:26.927Z,36.61
2018-08-07T16:08:19.933Z,36.57
2018-08-07T16:09:20.069Z,36.61
2018-08-07T16:11:13.008Z,36.57
2018-08-07T16:12:13.087Z,36.59
2018-08-07T16:14:06.134Z,36.54
2018-08-07T16:15:06.206Z,36.54
2018-08-07T16:16:59.214Z,36.45
2018-08-07T16:17:59.287Z,36.51
2018-08-07T16:19:52.309Z,36.43
2018-08-07T16:20:52.377Z,36.39
2018-08-07T16:22:45.890Z,36.39
2018-08-07T16:23:45.965Z,36.42
2018-08-07T16:25:38.986Z,36.45
2018-08-07T16:26:39.050Z,36.37
2018-08-07T16:28:32.068Z,36.31
2018-08-07T16:29:32.142Z,36.28
2018-08-07T16:31:25.186Z,36.23
2018-08-07T16:32:25.247Z,36.25
2018-08-07T16:34:18.239Z,36.21
2018-08-07T16:35:18.341Z,36.09
2018-08-07T16:37:11.316Z,36.17
2018-08-07T16:38:11.391Z,36.18
2018-08-07T16:40:04.405Z,36.16
2018-08-07T16:41:04.479Z,36.30
2018-08-07T16:42:57.490Z,36.07
2018-08-07T16:43:57.557Z,36.08
2018-08-07T16:45:50.659Z,36.07
2018-08-07T16:46:50.647Z,36.16
2018-08-07T16:48:43.668Z,36.14
2018-08-07T16:49:43.728Z,36.00
2018-08-07T16:51:36.744Z,36.00
2018-08-07T16:52:36.810Z,35.97
2018-08-07T16:54:29.830Z,35.98
2018-08-07T16:55:29.893Z,35.90
2018-08-07T16:57:22.904Z,35.92
2018-08-07T16:58:22.978Z,35.86
2018-08-07T17:00:16.192Z,35.86
2018-08-07T17:01:16.059Z,35.88
2018-08-07T17:03:09.070Z,35.85
2018-08-07T17:04:09.190Z,35.85
2018-08-07T17:06:02.163Z,35.80
2018-08-07T17:07:02.227Z,35.71
2018-08-07T17:08:55.246Z,35.80
2018-08-07T17:09:55.512Z,35.68
2018-08-07T17:11:48.321Z,35.63
2018-08-07T17:12:48.392Z,35.56
2018-08-07T17:14:41.409Z,35.61
2018-08-07T17:15:41.508Z,35.63
2018-08-07T17:17:34.484Z,35.58
2018-08-07T17:18:34.556Z,35.53
2018-08-07T17:20:27.571Z,35.45
2018-08-07T17:21:27.640Z,35.44
2018-08-07T17:23:20.822Z,35.39
2018-08-07T17:24:21.120Z,35.31
2018-08-07T17:26:13.848Z,35.31
2018-08-07T17:27:13.804Z,35.33
2018-08-07T17:29:06.823Z,35.33
2018-08-07T17:30:06.887Z,35.23
2018-08-07T17:31:59.899Z,35.29
2018-08-07T17:32:59.972Z,35.26
2018-08-07T17:34:52.986Z,35.17
2018-08-07T17:35:53.051Z,35.23
2018-08-07T17:37:46.064Z,35.19
2018-08-07T17:38:46.135Z,35.08
2018-08-07T17:40:39.445Z,35.15
2018-08-07T17:41:39.219Z,35.07
2018-08-07T17:43:32.461Z,35.10
2018-08-07T17:44:32.310Z,35.05
2018-08-07T17:46:25.337Z,35.04
2018-08-07T17:47:25.392Z,34.97
2018-08-07T17:49:18.427Z,34.78
2018-08-07T17:50:18.474Z,34.86
2018-08-07T17:52:11.492Z,34.77
2018-08-07T17:53:11.568Z,34.74
2018-08-07T17:55:04.587Z,34.62
2018-08-07T17:56:04.656Z,34.73
2018-08-07T17:57:57.714Z,34.67
2018-08-07T17:58:57.740Z,34.64
2018-08-07T18:00:50.753Z,34.60
2018-08-07T18:01:50.819Z,34.54
2018-08-07T18:03:43.832Z,34.54
2018-08-07T18:04:43.906Z,34.43
2018-08-07T18:06:36.956Z,34.27
2018-08-07T18:07:36.991Z,34.20
2018-08-07T18:09:30.005Z,34.17
2018-08-07T18:10:30.071Z,34.10
2018-08-07T18:12:23.125Z,34.05
2018-08-07T18:13:23.160Z,34.05
2018-08-07T18:15:16.392Z,34.03
2018-08-07T18:16:16.242Z,34.01
2018-08-07T18:18:09.242Z,33.94
2018-08-07T18:19:09.320Z,33.92
2018-08-07T18:21:02.846Z,33.67
2018-08-07T18:22:02.927Z,33.67
2018-08-07T18:23:55.921Z,33.46
2018-08-07T18:24:55.987Z,33.46
2018-08-07T18:26:49.025Z,33.37
2018-08-07T18:27:49.091Z,33.31
2018-08-07T18:29:42.108Z,33.30
2018-08-07T18:30:42.174Z,33.19
2018-08-07T18:32:35.217Z,33.08
2018-08-07T18:33:35.253Z,33.04
2018-08-07T18:35:28.269Z,33.04